Saint-Lazare, Canada
Current Conditions -  °F | °C
As of 5:00 PM on Tuesday 27 Jan 2015 (Local Time) from CYQB Reporting Station
Overcast Overcast  
Wind Chill: -5°   Ceiling: 8500
Heat Index: 10°   Visibility: 15mi
Dew Point: -6°   Wind: 14mph
Humidity: 48%   Direction: 50°NE
Pressure: 30.01"   Gusts: 20mph
Location:  46.65°N, 70.8°W
Report Text: CYQB 272200Z 05012G17KT 15SM SCT049 OVC085 M12/M21 A3001 RMK SC3AC5 SLP169
Loading
Personal Weather Stations






























Interactive Weather Map New forecast layout! Learn more

10-Day Weather Forecast

Advertisements
Track Severe Weather on mobile